Summitt, Oklahoma
Current Conditions -  °F | °C
As of 11:53 AM on Thursday 27 Nov 2014 (Local Time) from KMKO Reporting Station
Clear Clear  
Wind Chill: 41°   Ceiling: Unl
Heat Index: 41°   Visibility: 10mi
Dew Point: 25°   Wind: 0mph
Humidity: 53%   Direction: NA
Pressure: 30.56"   Gusts: NA
Location:  35.6818°N, 95.3578°W
Report Text: KMKO 271753Z AUTO 00000KT 10SM CLR 05/M04 A3056 RMK AO2 SLP352 T00501039 10050 21039 58009
Loading
Personal Weather Stations






























Interactive Weather Map New forecast layout! Learn more

10-Day Weather Forecast

Advertisements
Track Severe Weather on mobile